Kolibri — FG2860 — position and weather

sailwx.info

Track history (hours):
 
Tides and Currents Weather Stations Pressure Air Temp Water Temp Dewpoint Dewpoint Depression Visibility Wind Speed Wind Dir Waves Ship Positions

Kolibri

Last reported at 2017-Sep-25 15:00 UTC. Time now 2017-Sep-25 15:20 UTC.
Position N 48°13' W 004°28'.

Length 13 m.

Type: Pleasure craft. MMSI: 227608370.

Date/timePositionNaut miles runAvg speedWind from/ knotsBaromVisibWave heightAir tempDewpointWater temp
2017-Sep-25 15:00N 48°13' W 004°28'2 3.1
2017-Sep-25 14:30N 48°12' W 004°26'  
2017-Sep-18 13:38N 48°13' W 004°30'1 3.4
2017-Sep-18 13:14N 48°13' W 004°28'1 3.7
2017-Sep-18 12:58N 48°12' W 004°29'1 2.6
2017-Sep-18 12:29N 48°11' W 004°31'3 6.2
2017-Sep-18 11:58N 48°09' W 004°34'2 3.6
2017-Sep-18 11:27N 48°09' W 004°36'2 4.5
2017-Sep-18 11:00N 48°11' W 004°38'2 3.3
2017-Sep-18 10:30N 48°13' W 004°39'2 2.5
2017-Sep-18 09:53N 48°14' W 004°38'2 4.3
2017-Sep-18 09:30N 48°16' W 004°38'2 4.8
2017-Sep-18 09:00N 48°18' W 004°37'3 5.5
2017-Sep-18 08:30N 48°20' W 004°34'2 4.9
2017-Sep-18 08:00N 48°20' W 004°30'3 5.6
2017-Sep-18 07:30N 48°19' W 004°26'1 0.1
2017-Sep-17 18:12N 48°20' W 004°25'0 0.0
2017-Sep-17 17:48N 48°20' W 004°25'0 0.0
2017-Sep-17 17:30N 48°20' W 004°25'0 0.0
2017-Sep-17 16:57N 48°20' W 004°25'1 2.0
2017-Sep-17 16:30N 48°19' W 004°25'2 4.8
2017-Sep-17 15:59N 48°18' W 004°21'  
Track history (hours):
 
Tides and Currents Weather Stations Pressure Air Temp Water Temp Dewpoint Dewpoint Depression Visibility Wind Speed Wind Dir Waves Ship Positions

Kolibri

Last reported at 2017-Sep-25 15:00 UTC. Time now 2017-Sep-25 15:20 UTC.
Position N 48°13' W 004°28'.

Length 13 m.

Type: Pleasure craft. MMSI: 227608370.

Date/timePositionNaut miles runAvg speedWind from/ knotsBaromVisibWave heightAir tempDewpointWater temp
2017-Sep-25 15:00N 48°13' W 004°28'2 3.1
2017-Sep-25 14:30N 48°12' W 004°26'  
2017-Sep-18 13:38N 48°13' W 004°30'1 3.4
2017-Sep-18 13:14N 48°13' W 004°28'1 3.7
2017-Sep-18 12:58N 48°12' W 004°29'1 2.6
2017-Sep-18 12:29N 48°11' W 004°31'3 6.2
2017-Sep-18 11:58N 48°09' W 004°34'2 3.6
2017-Sep-18 11:27N 48°09' W 004°36'2 4.5
2017-Sep-18 11:00N 48°11' W 004°38'2 3.3
2017-Sep-18 10:30N 48°13' W 004°39'2 2.5
2017-Sep-18 09:53N 48°14' W 004°38'2 4.3
2017-Sep-18 09:30N 48°16' W 004°38'2 4.8
2017-Sep-18 09:00N 48°18' W 004°37'3 5.5
2017-Sep-18 08:30N 48°20' W 004°34'2 4.9
2017-Sep-18 08:00N 48°20' W 004°30'3 5.6
2017-Sep-18 07:30N 48°19' W 004°26'1 0.1
2017-Sep-17 18:12N 48°20' W 004°25'0 0.0
2017-Sep-17 17:48N 48°20' W 004°25'0 0.0
2017-Sep-17 17:30N 48°20' W 004°25'0 0.0
2017-Sep-17 16:57N 48°20' W 004°25'1 2.0
2017-Sep-17 16:30N 48°19' W 004°25'2 4.8
2017-Sep-17 15:59N 48°18' W 004°21'  

Dump ship's entire track history